Hlavní strana
METAR-TAF:

METAR-TAF

Letiště :

Weno, Mikronésie

zeměpisná šířka: 07-28N, zeměpisná délka: 151-51E, výška: 3 m

Aktuální stav počasí

Zpráva byla vytvořena před 55 minutami, v 06:50 UTC
Severoseverovýchodní vítr 7 kt
Teplota 29°C
Vlhkost vzduchu 84%
Tlak 1010 hPa
Viditelnost: 24.1 km
Polojasno ve výšce 1400 ft
Oblačno až skoro zataženo ve výšce 12000 ft
Oblačno až skoro zataženo ve výšce 28000 ft

METAR: PTKK 250650Z 03007KT 15SM SCT014 BKN120 BKN280 29/26 A2982 RMK SLP100 T02940257

Čas: 17:45 (07:45 UTC)

Předpověď počasí

Zpráva byla vytvořena před 2 hodinami a 6 minutami, v 05:39 UTC
Předpověď platná od 25 v 06 UTC do 26 v 06 UTC
Východní vítr 10 kt
Viditelnost: 10 km
Polojasno ve výšce 1400 ft
Polojasno ve výšce 12000 ft
přeháňky v blízkosti

TAF: PTKK 250539Z 2506/2606 08010KT P6SM VCSH SCT014 SCT120

Stav a předpovědi počasí z více než 4 000 letišť (zprávy METAR a TAF).

Červené a žluté tečky na mapě představují dostupné meteorologické stanice.

Když kurzor umístíte na tečku, zobrazí se název stanice.

Pak kliknutím zobrazíte stav a předpověď počasí.

Chcete-li změnit mapu, kliknutím na zelené tlačítko se znaménkem +mapu přiblížíte, kliknutím na zelené tlačítko se znaménkem – mapu oddálíte a kliknutím na zelené šipky přejdete na sousední mapy.


METAR-TAF: